createdAt,value
2023-04-24T00:00:00.754Z,10.61
2023-04-24T00:02:27.441Z,10.64
2023-04-24T00:04:54.189Z,10.58
2023-04-24T00:07:22.069Z,10.57
2023-04-24T00:09:48.587Z,10.60
2023-04-24T00:12:15.112Z,10.58
2023-04-24T00:14:41.651Z,10.56
2023-04-24T00:17:08.186Z,10.53
2023-04-24T00:19:34.763Z,10.54
2023-04-24T00:22:01.225Z,10.54
2023-04-24T00:24:29.045Z,10.57
2023-04-24T00:26:55.581Z,10.55
2023-04-24T00:29:22.070Z,10.51
2023-04-24T00:31:48.618Z,10.52
2023-04-24T00:34:15.200Z,10.45
2023-04-24T00:36:41.686Z,10.46
2023-04-24T00:39:08.156Z,10.46
2023-04-24T00:41:36.394Z,10.47
2023-04-24T00:44:03.033Z,10.40
2023-04-24T00:46:29.735Z,10.47
2023-04-24T00:48:57.229Z,10.47
2023-04-24T00:51:23.760Z,10.47
2023-04-24T00:53:50.244Z,10.47
2023-04-24T00:56:16.778Z,10.36
2023-04-24T00:58:45.570Z,10.38
2023-04-24T01:01:12.287Z,10.40
2023-04-24T01:03:39.122Z,10.43
2023-04-24T01:06:06.593Z,10.33
2023-04-24T01:08:35.428Z,10.29
2023-04-24T01:11:04.047Z,10.38
2023-04-24T01:13:31.337Z,10.30
2023-04-24T01:15:59.389Z,10.25
2023-04-24T01:18:25.971Z,10.26
2023-04-24T01:20:54.411Z,10.20
2023-04-24T01:23:22.256Z,10.24
2023-04-24T01:25:49.887Z,10.27
2023-04-24T01:28:17.005Z,10.20
2023-04-24T01:30:43.828Z,10.17
2023-04-24T01:33:10.731Z,10.23
2023-04-24T01:35:38.006Z,10.20
2023-04-24T01:38:05.340Z,10.19
2023-04-24T01:40:33.327Z,10.16
2023-04-24T01:43:00.153Z,10.14
2023-04-24T01:45:26.632Z,10.28
2023-04-24T01:47:53.452Z,10.19
2023-04-24T01:50:20.050Z,10.17
2023-04-24T01:52:46.507Z,10.20
2023-04-24T01:55:13.048Z,10.20
2023-04-24T01:57:40.933Z,10.19
2023-04-24T02:00:08.372Z,10.17
2023-04-24T02:02:35.091Z,10.16
2023-04-24T02:05:01.762Z,10.16
2023-04-24T02:07:28.215Z,10.15
2023-04-24T02:09:54.703Z,10.20
2023-04-24T02:12:22.298Z,10.17
2023-04-24T02:14:50.196Z,10.21
2023-04-24T02:17:16.764Z,10.14
2023-04-24T02:19:43.607Z,10.12
2023-04-24T02:22:10.473Z,10.10
2023-04-24T02:24:37.127Z,10.14
2023-04-24T02:27:03.939Z,10.15
2023-04-24T02:29:30.460Z,10.18
2023-04-24T02:31:58.408Z,10.18
2023-04-24T02:34:25.212Z,10.16
2023-04-24T02:36:51.728Z,10.17
2023-04-24T02:39:18.223Z,10.17
2023-04-24T02:41:44.753Z,10.14
2023-04-24T02:44:11.314Z,10.16
2023-04-24T02:46:37.933Z,10.12
2023-04-24T02:49:05.773Z,10.10
2023-04-24T02:51:32.263Z,10.10
2023-04-24T02:53:58.881Z,10.10
2023-04-24T02:56:25.513Z,10.10
2023-04-24T02:58:52.015Z,10.12
2023-04-24T03:01:18.562Z,10.08
2023-04-24T03:03:45.317Z,10.09
2023-04-24T03:06:13.216Z,10.13
2023-04-24T03:08:39.730Z,10.08
2023-04-24T03:11:06.225Z,10.01
2023-04-24T03:13:32.678Z,9.97
2023-04-24T03:15:59.270Z,10.03
2023-04-24T03:18:25.813Z,9.98
2023-04-24T03:20:52.506Z,9.99
2023-04-24T03:23:20.336Z,10.05
2023-04-24T03:25:46.842Z,10.02
2023-04-24T03:28:13.331Z,9.97
2023-04-24T03:30:39.787Z,9.99
2023-04-24T03:33:06.298Z,10.06
2023-04-24T03:35:32.795Z,10.00
2023-04-24T03:37:59.319Z,9.97
2023-04-24T03:40:27.229Z,10.00
2023-04-24T03:42:53.737Z,9.96
2023-04-24T03:45:20.519Z,9.93
2023-04-24T03:47:47.295Z,9.95
2023-04-24T03:50:13.981Z,9.94
2023-04-24T03:52:40.529Z,9.94
2023-04-24T03:55:08.004Z,9.96
2023-04-24T03:57:35.847Z,10.01
2023-04-24T04:00:02.490Z,9.99
2023-04-24T04:02:29.073Z,9.94
2023-04-24T04:04:55.796Z,9.96
2023-04-24T04:07:22.339Z,9.97
2023-04-24T04:09:48.827Z,9.96
2023-04-24T04:12:15.335Z,9.87
2023-04-24T04:14:43.183Z,9.83
2023-04-24T04:17:09.729Z,9.81
2023-04-24T04:19:36.190Z,9.76
2023-04-24T04:22:02.653Z,9.81
2023-04-24T04:24:29.128Z,9.71
2023-04-24T04:26:55.595Z,9.78
2023-04-24T04:29:22.052Z,9.80
2023-04-24T04:31:49.892Z,9.70
2023-04-24T04:34:16.469Z,9.69
2023-04-24T04:36:43.176Z,9.69
2023-04-24T04:39:09.655Z,9.66
2023-04-24T04:41:36.086Z,9.60
2023-04-24T04:44:02.875Z,9.56
2023-04-24T04:46:29.321Z,9.54
2023-04-24T04:48:57.127Z,9.59
2023-04-24T04:51:23.610Z,9.50
2023-04-24T04:53:50.108Z,9.45
2023-04-24T04:56:16.619Z,9.43
2023-04-24T04:58:43.116Z,9.38
2023-04-24T05:01:09.631Z,9.52
2023-04-24T05:03:36.267Z,9.47
2023-04-24T05:06:05.124Z,9.37
2023-04-24T05:08:31.653Z,9.38
2023-04-24T05:10:58.172Z,9.44
2023-04-24T05:13:38.248Z,9.38
2023-04-24T05:16:06.684Z,9.35
2023-04-24T05:18:33.273Z,9.42
2023-04-24T05:20:59.802Z,9.35
2023-04-24T05:23:27.669Z,9.32
2023-04-24T05:25:54.190Z,9.35
2023-04-24T05:28:20.676Z,9.32
2023-04-24T05:30:47.168Z,9.39
2023-04-24T05:33:13.696Z,9.41
2023-04-24T05:35:41.285Z,9.28
2023-04-24T05:38:07.752Z,9.34
2023-04-24T05:40:35.538Z,9.47
2023-04-24T05:43:02.018Z,9.33
2023-04-24T05:45:28.533Z,9.32
2023-04-24T05:47:55.121Z,9.28
2023-04-24T05:50:21.813Z,9.34
2023-04-24T05:52:48.308Z,9.25
2023-04-24T05:55:14.881Z,9.25
2023-04-24T05:57:42.734Z,9.21
2023-04-24T06:00:10.794Z,9.16
2023-04-24T06:02:37.434Z,9.20
2023-04-24T06:05:04.782Z,9.09
2023-04-24T06:07:31.443Z,9.10
2023-04-24T06:09:57.938Z,9.10
2023-04-24T06:12:24.418Z,9.08
2023-04-24T06:14:52.406Z,9.03
2023-04-24T06:17:19.516Z,8.95
2023-04-24T06:19:46.121Z,8.98
2023-04-24T06:22:12.723Z,8.94
2023-04-24T06:24:40.460Z,8.92
2023-04-24T06:27:07.029Z,8.88
2023-04-24T06:29:34.043Z,8.87
2023-04-24T06:32:02.025Z,9.00
2023-04-24T06:34:28.554Z,8.80
2023-04-24T06:36:55.351Z,8.74
2023-04-24T06:39:21.829Z,8.82
2023-04-24T06:41:48.372Z,8.82
2023-04-24T06:44:14.848Z,8.79
2023-04-24T06:46:41.943Z,8.81
2023-04-24T06:49:10.581Z,8.79
2023-04-24T06:51:37.103Z,8.81
2023-04-24T06:54:03.718Z,8.81
2023-04-24T06:56:30.475Z,8.81
2023-04-24T06:58:57.050Z,8.90
2023-04-24T07:01:23.632Z,8.92
2023-04-24T07:03:50.657Z,8.88
2023-04-24T07:06:18.692Z,9.02
2023-04-24T07:08:45.266Z,8.97
2023-04-24T07:11:11.722Z,8.95
2023-04-24T07:13:38.217Z,8.95
2023-04-24T07:16:04.961Z,8.98
2023-04-24T07:18:31.499Z,8.95
2023-04-24T07:20:58.264Z,9.03
2023-04-24T07:23:26.189Z,9.16
2023-04-24T07:25:52.718Z,9.12
2023-04-24T07:28:19.253Z,9.10
2023-04-24T07:30:45.750Z,9.11
2023-04-24T07:33:12.283Z,9.27
2023-04-24T07:35:39.170Z,9.34
2023-04-24T07:38:05.717Z,9.33
2023-04-24T07:40:35.525Z,9.18
2023-04-24T07:43:02.074Z,9.06
2023-04-24T07:45:28.576Z,9.11
2023-04-24T07:47:55.262Z,9.05
2023-04-24T07:50:22.387Z,9.04
2023-04-24T07:52:49.171Z,9.10
2023-04-24T07:55:15.866Z,8.97
2023-04-24T07:57:43.724Z,9.20
2023-04-24T08:00:11.299Z,9.17
2023-04-24T08:02:37.905Z,9.14
2023-04-24T08:05:05.237Z,9.11
2023-04-24T08:07:32.266Z,9.28
2023-04-24T08:09:58.730Z,9.38
2023-04-24T08:12:25.177Z,9.21
2023-04-24T08:14:53.004Z,9.17
2023-04-24T08:17:19.485Z,9.03
2023-04-24T08:19:46.042Z,8.97
2023-04-24T08:22:12.512Z,8.97
2023-04-24T08:24:39.001Z,8.89
2023-04-24T08:27:05.548Z,8.92
2023-04-24T08:29:32.084Z,8.84
2023-04-24T08:32:00.066Z,8.84
2023-04-24T08:34:26.679Z,8.82
2023-04-24T08:36:53.256Z,8.79
2023-04-24T08:39:19.921Z,8.84
2023-04-24T08:41:46.601Z,8.92
2023-04-24T08:44:13.522Z,9.03
2023-04-24T08:46:41.289Z,9.07
2023-04-24T08:49:09.148Z,9.06
2023-04-24T08:51:37.727Z,9.13
2023-04-24T08:54:05.320Z,9.13
2023-04-24T08:56:34.528Z,9.19
2023-04-24T08:59:01.316Z,9.30
2023-04-24T09:01:28.778Z,9.29
2023-04-24T09:03:56.593Z,9.30
2023-04-24T09:06:25.158Z,9.41
2023-04-24T09:08:54.887Z,9.50
2023-04-24T09:11:21.492Z,9.62
2023-04-24T09:13:49.448Z,9.62
2023-04-24T09:16:16.132Z,9.75
2023-04-24T09:18:42.651Z,9.80
2023-04-24T09:21:09.971Z,10.02
2023-04-24T09:23:37.869Z,9.91
2023-04-24T09:26:04.937Z,9.81
2023-04-24T09:28:33.291Z,9.82
2023-04-24T09:31:07.639Z,9.85
2023-04-24T09:33:34.151Z,9.73
2023-04-24T09:36:00.615Z,9.79
2023-04-24T09:38:34.495Z,9.64
2023-04-24T09:41:04.193Z,9.61
2023-04-24T09:43:30.997Z,9.64
2023-04-24T09:45:59.021Z,9.75
2023-04-24T09:48:32.915Z,9.81
2023-04-24T09:50:59.713Z,10.02
2023-04-24T09:53:26.610Z,10.20
2023-04-24T09:55:53.136Z,10.37
2023-04-24T09:58:25.856Z,10.08
2023-04-24T10:00:54.658Z,9.85
2023-04-24T10:03:21.374Z,9.86
2023-04-24T10:05:48.479Z,9.76
2023-04-24T10:08:15.006Z,9.73
2023-04-24T10:10:43.348Z,9.69
2023-04-24T10:13:11.312Z,9.73
2023-04-24T10:15:41.184Z,9.83
2023-04-24T10:18:08.824Z,9.85
2023-04-24T10:20:36.851Z,9.95
2023-04-24T10:23:04.528Z,10.11
2023-04-24T10:25:32.840Z,10.32
2023-04-24T10:28:00.778Z,10.64
2023-04-24T10:30:28.350Z,10.76
2023-04-24T10:32:56.196Z,10.58
2023-04-24T10:35:24.068Z,10.65
2023-04-24T10:37:55.248Z,10.55
2023-04-24T10:40:28.122Z,10.63
2023-04-24T10:42:56.876Z,10.53
2023-04-24T10:45:25.217Z,10.41
2023-04-24T10:47:59.983Z,10.15
2023-04-24T10:50:27.518Z,10.09
2023-04-24T10:52:54.231Z,10.16
2023-04-24T10:55:45.912Z,10.25
2023-04-24T10:58:12.667Z,10.35
2023-04-24T11:00:39.990Z,10.40
2023-04-24T11:03:23.015Z,10.55
2023-04-24T11:06:00.863Z,10.55
2023-04-24T11:08:29.712Z,10.62
2023-04-24T11:10:59.244Z,10.55
2023-04-24T11:13:27.022Z,10.64
2023-04-24T11:16:15.858Z,10.74
2023-04-24T11:18:44.666Z,10.84
2023-04-24T11:21:12.296Z,10.92
2023-04-24T11:23:38.810Z,10.92
2023-04-24T11:26:12.177Z,10.84
2023-04-24T11:28:44.763Z,10.87
2023-04-24T11:31:35.403Z,10.83
2023-04-24T11:34:09.137Z,10.94
2023-04-24T11:36:36.183Z,10.92
2023-04-24T11:39:03.230Z,11.05
2023-04-24T11:41:29.810Z,11.03
2023-04-24T11:43:58.243Z,11.02
2023-04-24T11:46:29.328Z,11.12
2023-04-24T11:48:55.854Z,11.12
2023-04-24T11:51:25.502Z,11.12
2023-04-24T11:54:01.502Z,11.30
2023-04-24T11:56:30.677Z,11.34
2023-04-24T11:58:57.179Z,11.27
2023-04-24T12:01:23.652Z,11.27
2023-04-24T12:03:51.297Z,11.28
2023-04-24T12:06:18.621Z,11.32
2023-04-24T12:08:48.280Z,11.23
2023-04-24T12:11:17.286Z,11.22
2023-04-24T12:13:45.003Z,11.16
2023-04-24T12:16:11.713Z,11.24
2023-04-24T12:18:43.118Z,11.20
2023-04-24T12:21:16.503Z,11.28
2023-04-24T12:23:44.341Z,11.31
2023-04-24T12:26:12.554Z,11.44
2023-04-24T12:28:48.664Z,11.51
2023-04-24T12:31:15.397Z,11.57
2023-04-24T12:33:42.131Z,11.66
2023-04-24T12:36:11.261Z,11.64
2023-04-24T12:38:37.779Z,11.68
2023-04-24T12:41:06.248Z,11.78
2023-04-24T12:43:33.079Z,11.80
2023-04-24T12:46:01.032Z,11.77
2023-04-24T12:48:27.865Z,11.83
2023-04-24T12:50:54.461Z,11.79
2023-04-24T12:53:20.926Z,11.85
2023-04-24T12:55:47.449Z,11.76
2023-04-24T12:58:13.986Z,11.75
2023-04-24T13:00:40.584Z,11.68
2023-04-24T13:03:08.500Z,11.76
2023-04-24T13:05:35.158Z,11.64
2023-04-24T13:08:01.634Z,11.55
2023-04-24T13:10:28.579Z,11.51
2023-04-24T13:12:55.089Z,11.50
2023-04-24T13:15:21.627Z,11.49
2023-04-24T13:17:48.172Z,11.46
2023-04-24T13:20:16.220Z,11.36
2023-04-24T13:22:42.772Z,11.38
2023-04-24T13:25:09.725Z,11.45
2023-04-24T13:27:36.212Z,11.42
2023-04-24T13:30:02.951Z,11.56
2023-04-24T13:32:29.675Z,11.76
2023-04-24T13:34:57.405Z,11.82
2023-04-24T13:37:25.305Z,11.84
2023-04-24T13:39:52.326Z,11.79
2023-04-24T13:42:19.002Z,11.94
2023-04-24T13:44:45.458Z,11.83
2023-04-24T13:47:11.988Z,11.78
2023-04-24T13:49:38.503Z,11.79
2023-04-24T13:52:05.131Z,11.92
2023-04-24T13:54:33.154Z,11.91
2023-04-24T13:56:59.791Z,11.89
2023-04-24T13:59:26.568Z,11.90
2023-04-24T14:01:53.118Z,11.72
2023-04-24T14:04:20.022Z,11.67
2023-04-24T14:06:46.622Z,11.81
2023-04-24T14:09:13.235Z,11.90
2023-04-24T14:11:41.307Z,11.89
2023-04-24T14:14:07.876Z,11.96
2023-04-24T14:16:35.029Z,11.95
2023-04-24T14:19:01.550Z,11.87
2023-04-24T14:21:28.068Z,11.93
2023-04-24T14:23:54.554Z,11.87
2023-04-24T14:26:21.140Z,11.95
2023-04-24T14:28:48.937Z,11.97
2023-04-24T14:31:15.504Z,12.14
2023-04-24T14:33:42.123Z,12.08
2023-04-24T14:36:08.767Z,12.12
2023-04-24T14:38:35.324Z,12.18
2023-04-24T14:43:31.300Z,12.07
2023-04-24T14:45:59.176Z,12.12
2023-04-24T14:48:25.824Z,12.18
2023-04-24T14:50:52.434Z,12.25
2023-04-24T14:53:19.082Z,12.11
2023-04-24T14:55:45.760Z,11.94
2023-04-24T14:58:12.281Z,12.01
2023-04-24T15:00:38.855Z,11.94
2023-04-24T15:03:07.023Z,11.76
2023-04-24T15:05:33.944Z,11.43
2023-04-24T15:08:00.723Z,11.58
2023-04-24T15:10:27.256Z,11.51
2023-04-24T15:12:53.825Z,11.39
2023-04-24T15:15:20.625Z,11.41
2023-04-24T15:17:47.125Z,11.43
2023-04-24T15:20:15.025Z,11.50
2023-04-24T15:22:41.517Z,11.57
2023-04-24T15:25:08.676Z,11.61
2023-04-24T15:27:44.956Z,11.88
2023-04-24T15:30:12.559Z,11.86
2023-04-24T15:32:39.702Z,12.03
2023-04-24T15:35:09.647Z,12.11
2023-04-24T15:37:38.850Z,12.25
2023-04-24T15:40:06.753Z,12.31
2023-04-24T15:42:33.484Z,12.42
2023-04-24T15:45:00.030Z,12.47
2023-04-24T15:47:26.800Z,12.61
2023-04-24T15:49:53.681Z,12.58
2023-04-24T15:52:20.213Z,12.60
2023-04-24T15:54:48.079Z,12.56
2023-04-24T15:57:14.639Z,12.45
2023-04-24T15:59:41.192Z,12.22
2023-04-24T16:02:09.577Z,12.39
2023-04-24T16:04:36.449Z,12.81
2023-04-24T16:07:03.041Z,13.03
2023-04-24T16:09:29.612Z,13.08
2023-04-24T16:11:57.524Z,13.21
2023-04-24T16:14:24.918Z,13.27
2023-04-24T16:16:51.460Z,13.07
2023-04-24T16:19:17.996Z,13.02
2023-04-24T16:21:44.480Z,13.08
2023-04-24T16:24:10.944Z,13.08
2023-04-24T16:26:37.432Z,13.15
2023-04-24T16:29:05.369Z,13.07
2023-04-24T16:31:32.268Z,13.15
2023-04-24T16:33:58.894Z,13.19
2023-04-24T16:36:25.398Z,13.31
2023-04-24T16:38:51.851Z,13.33
2023-04-24T16:41:18.399Z,13.18
2023-04-24T16:43:44.856Z,12.77
2023-04-24T16:46:13.048Z,12.48
2023-04-24T16:48:39.561Z,12.45
2023-04-24T16:51:06.120Z,12.32
2023-04-24T16:53:32.587Z,12.27
2023-04-24T16:55:59.142Z,12.05
2023-04-24T16:58:25.951Z,11.80
2023-04-24T17:00:52.500Z,11.71
2023-04-24T17:03:20.589Z,11.67
2023-04-24T17:05:47.280Z,11.73
2023-04-24T17:08:13.884Z,11.50
2023-04-24T17:10:40.434Z,11.46
2023-04-24T17:13:06.949Z,11.43
2023-04-24T17:15:33.624Z,11.26
2023-04-24T17:18:00.200Z,11.42
2023-04-24T17:20:29.797Z,11.27
2023-04-24T17:22:56.837Z,11.24
2023-04-24T17:25:24.176Z,11.29
2023-04-24T17:27:51.019Z,11.09
2023-04-24T17:30:17.545Z,11.13
2023-04-24T17:32:44.082Z,11.14
2023-04-24T17:35:10.929Z,11.00
2023-04-24T17:37:39.192Z,10.92
2023-04-24T17:40:07.486Z,10.82
2023-04-24T17:42:33.950Z,10.99
2023-04-24T17:45:00.529Z,11.12
2023-04-24T17:47:27.014Z,10.95
2023-04-24T17:49:53.535Z,10.82
2023-04-24T17:52:20.049Z,11.01
2023-04-24T17:54:48.014Z,11.04
2023-04-24T17:57:14.516Z,11.13
2023-04-24T17:59:41.029Z,10.94
2023-04-24T18:02:07.534Z,10.85
2023-04-24T18:04:34.227Z,10.72
2023-04-24T18:07:00.907Z,10.57
2023-04-24T18:09:27.431Z,10.38
2023-04-24T18:11:55.326Z,10.37
2023-04-24T18:14:21.883Z,10.39
2023-04-24T18:16:48.347Z,10.24
2023-04-24T18:19:14.932Z,10.24
2023-04-24T18:21:41.483Z,10.18
2023-04-24T18:24:08.109Z,10.09
2023-04-24T18:26:34.602Z,10.03
2023-04-24T18:29:02.522Z,10.01
2023-04-24T18:31:29.080Z,9.94
2023-04-24T18:33:55.633Z,9.86
2023-04-24T18:36:22.116Z,9.79
2023-04-24T18:38:48.812Z,9.70
2023-04-24T18:41:15.692Z,9.58
2023-04-24T18:43:42.205Z,9.50
2023-04-24T18:46:10.018Z,9.38
2023-04-24T18:48:36.564Z,9.33
2023-04-24T18:51:03.177Z,9.27
2023-04-24T18:53:29.818Z,9.20
2023-04-24T18:55:56.276Z,9.13
2023-04-24T18:58:22.807Z,9.09
2023-04-24T19:00:49.422Z,9.06
2023-04-24T19:03:17.423Z,8.97
2023-04-24T19:05:44.007Z,8.91
2023-04-24T19:08:10.506Z,8.84
2023-04-24T19:10:36.992Z,8.78
2023-04-24T19:13:03.649Z,8.73
2023-04-24T19:15:30.152Z,8.68
2023-04-24T19:17:56.757Z,8.64
2023-04-24T19:20:25.272Z,8.59
2023-04-24T19:22:51.875Z,8.58
2023-04-24T19:25:18.429Z,8.53
2023-04-24T19:27:44.941Z,8.50
2023-04-24T19:30:12.151Z,8.43
2023-04-24T19:32:38.725Z,8.45
2023-04-24T19:35:05.950Z,8.41
2023-04-24T19:37:33.859Z,8.38
2023-04-24T19:40:01.134Z,8.33
2023-04-24T19:42:39.803Z,8.26
2023-04-24T19:45:09.663Z,8.21
2023-04-24T19:47:36.254Z,8.18
2023-04-24T19:50:02.897Z,8.14
2023-04-24T19:52:29.441Z,8.10
2023-04-24T19:54:57.258Z,8.05
2023-04-24T19:57:23.748Z,8.00
2023-04-24T19:59:50.245Z,7.97
2023-04-24T20:02:16.809Z,7.95
2023-04-24T20:04:43.517Z,7.95
2023-04-24T20:07:10.103Z,7.95
2023-04-24T20:09:36.621Z,7.88
2023-04-24T20:12:04.635Z,7.81
2023-04-24T20:14:31.132Z,7.78
2023-04-24T20:16:57.649Z,7.74
2023-04-24T20:19:24.142Z,7.72
2023-04-24T20:21:50.708Z,7.70
2023-04-24T20:24:17.756Z,7.68
2023-04-24T20:26:44.261Z,7.66
2023-04-24T20:29:12.109Z,7.66
2023-04-24T20:31:38.702Z,7.66
2023-04-24T20:34:05.458Z,7.63
2023-04-24T20:36:31.988Z,7.63
2023-04-24T20:38:58.444Z,7.59
2023-04-24T20:41:25.172Z,7.57
2023-04-24T20:43:51.743Z,7.57
2023-04-24T20:46:19.629Z,7.54
2023-04-24T20:48:46.240Z,7.54
2023-04-24T20:51:13.113Z,7.53
2023-04-24T20:53:39.618Z,7.49
2023-04-24T20:56:06.349Z,7.46
2023-04-24T20:58:32.949Z,7.44
2023-04-24T21:00:59.575Z,7.44
2023-04-24T21:03:27.563Z,7.38
2023-04-24T21:05:54.255Z,7.36
2023-04-24T21:08:20.761Z,7.31
2023-04-24T21:10:47.247Z,7.28
2023-04-24T21:13:13.749Z,7.25
2023-04-24T21:15:40.304Z,7.22
2023-04-24T21:18:06.885Z,7.19
2023-04-24T21:20:34.849Z,7.14
2023-04-24T21:23:01.400Z,7.11
2023-04-24T21:25:27.987Z,7.10
2023-04-24T21:27:54.930Z,7.05
2023-04-24T21:30:21.685Z,7.04
2023-04-24T21:32:48.239Z,7.00
2023-04-24T21:35:14.824Z,6.98
2023-04-24T21:37:42.749Z,6.93
2023-04-24T21:40:09.873Z,6.89
2023-04-24T21:42:36.441Z,6.87
2023-04-24T21:45:02.994Z,6.84
2023-04-24T21:47:29.541Z,6.82
2023-04-24T21:49:56.003Z,6.81
2023-04-24T21:52:22.594Z,6.80
2023-04-24T21:54:50.628Z,6.74
2023-04-24T21:57:17.218Z,6.74
2023-04-24T21:59:44.049Z,6.72
2023-04-24T22:02:10.697Z,6.69
2023-04-24T22:04:37.743Z,6.66
2023-04-24T22:07:04.439Z,6.67
2023-04-24T22:09:30.962Z,6.62
2023-04-24T22:11:59.028Z,6.60
2023-04-24T22:14:26.405Z,6.58
2023-04-24T22:16:55.151Z,6.52
2023-04-24T22:19:21.692Z,6.51
2023-04-24T22:21:48.218Z,6.52
2023-04-24T22:24:14.795Z,6.49
2023-04-24T22:26:41.254Z,6.49
2023-04-24T22:29:09.118Z,6.48
2023-04-24T22:31:35.680Z,6.46
2023-04-24T22:34:02.373Z,6.48
2023-04-24T22:36:28.887Z,6.48
2023-04-24T22:38:55.436Z,6.44
2023-04-24T22:41:22.108Z,6.46
2023-04-24T22:43:48.823Z,6.48
2023-04-24T22:46:16.888Z,6.47
2023-04-24T22:48:44.789Z,6.45
2023-04-24T22:51:11.259Z,6.44
2023-04-24T22:53:37.765Z,6.41
2023-04-24T22:56:04.854Z,6.38
2023-04-24T22:58:32.236Z,6.34
2023-04-24T23:00:58.784Z,6.30
2023-04-24T23:03:26.768Z,6.27
2023-04-24T23:05:53.382Z,6.22
2023-04-24T23:08:19.871Z,6.22
2023-04-24T23:10:46.384Z,6.17
2023-04-24T23:13:12.943Z,6.15
2023-04-24T23:15:39.451Z,6.14
2023-04-24T23:18:06.101Z,6.16
2023-04-24T23:20:34.090Z,6.16
2023-04-24T23:23:00.779Z,6.20
2023-04-24T23:25:27.404Z,6.22
2023-04-24T23:27:53.905Z,6.26
2023-04-24T23:30:20.413Z,6.27
2023-04-24T23:32:46.959Z,6.31
2023-04-24T23:35:13.625Z,6.34
2023-04-24T23:37:41.610Z,6.37
2023-04-24T23:40:09.130Z,6.37
2023-04-24T23:42:35.737Z,6.36
2023-04-24T23:45:02.232Z,6.39
2023-04-24T23:47:28.822Z,6.44
2023-04-24T23:49:55.371Z,6.44
2023-04-24T23:52:22.280Z,6.45
2023-04-24T23:54:50.293Z,6.52
2023-04-24T23:57:16.789Z,6.56
2023-04-24T23:59:43.234Z,6.62
